createdAt,value
2018-10-03T00:00:32.577Z,98903.02
2018-10-03T00:03:01.526Z,98906.55
2018-10-03T00:05:30.291Z,98905.39
2018-10-03T00:07:59.202Z,98906.20
2018-10-03T00:10:27.913Z,98915.80
2018-10-03T00:12:56.830Z,98917.80
2018-10-03T00:15:25.592Z,98914.27
2018-10-03T00:17:54.332Z,98919.65
2018-10-03T00:20:23.112Z,98921.52
2018-10-03T00:22:52.098Z,98924.21
2018-10-03T00:25:20.867Z,98923.68
2018-10-03T00:27:49.625Z,98932.27
2018-10-03T00:30:18.311Z,98930.93
2018-10-03T00:32:47.065Z,98933.63
2018-10-03T00:35:15.945Z,98933.93
2018-10-03T00:37:44.693Z,98930.74
2018-10-03T00:40:13.509Z,98931.24
2018-10-03T00:42:42.279Z,98931.59
2018-10-03T00:45:11.092Z,98931.24
2018-10-03T00:47:39.876Z,98936.13
2018-10-03T00:50:08.746Z,98937.46
2018-10-03T00:52:37.513Z,98941.00
2018-10-03T00:55:06.661Z,98945.88
2018-10-03T00:57:35.461Z,98949.06
2018-10-03T01:00:04.630Z,98951.75
2018-10-03T01:02:33.399Z,98952.59
2018-10-03T01:05:02.148Z,98957.44
2018-10-03T01:07:30.908Z,98966.03
2018-10-03T01:09:59.715Z,98962.00
2018-10-03T01:12:28.496Z,98965.19
2018-10-03T01:14:57.364Z,98970.56
2018-10-03T01:17:26.081Z,98975.75
2018-10-03T01:19:54.870Z,98973.75
2018-10-03T01:22:23.576Z,98980.28
2018-10-03T01:24:52.381Z,98987.00
2018-10-03T01:27:21.120Z,98987.54
2018-10-03T01:29:49.912Z,98996.41
2018-10-03T01:32:18.701Z,98995.61
2018-10-03T01:34:47.521Z,99002.83
2018-10-03T01:37:16.333Z,99002.33
2018-10-03T01:39:45.062Z,99009.05
2018-10-03T01:42:13.794Z,99012.23
2018-10-03T01:44:42.694Z,99010.05
2018-10-03T01:47:11.483Z,99016.77
2018-10-03T01:49:40.192Z,99015.92
2018-10-03T01:52:08.927Z,99026.67
2018-10-03T01:54:37.683Z,99021.80
2018-10-03T01:57:06.460Z,99028.52
2018-10-03T01:59:35.214Z,99029.86
2018-10-03T02:02:04.065Z,99029.05
2018-10-03T02:04:32.862Z,99038.77
2018-10-03T02:07:01.627Z,99046.83
2018-10-03T02:09:30.463Z,99045.98
2018-10-03T02:11:59.264Z,99048.67
2018-10-03T02:14:28.039Z,99055.09
2018-10-03T02:16:56.867Z,99055.40
2018-10-03T02:19:25.610Z,99063.46
2018-10-03T02:21:54.350Z,99065.84
2018-10-03T02:24:23.063Z,99076.41
2018-10-03T02:26:51.795Z,99073.41
2018-10-03T02:29:20.622Z,99074.40
2018-10-03T02:31:51.061Z,99079.78
2018-10-03T02:34:19.915Z,99080.13
2018-10-03T02:36:48.673Z,99087.84
2018-10-03T02:39:17.507Z,99091.88
2018-10-03T02:41:46.258Z,99101.63
2018-10-03T02:44:15.089Z,99102.97
2018-10-03T02:46:43.824Z,99106.16
2018-10-03T02:49:12.557Z,99107.16
2018-10-03T02:51:41.323Z,99115.72
2018-10-03T02:54:10.032Z,99121.09
2018-10-03T02:56:38.736Z,99129.16
2018-10-03T02:59:07.508Z,99130.51
2018-10-03T03:01:36.334Z,99135.38
2018-10-03T03:04:05.218Z,99137.58
2018-10-03T03:06:34.007Z,99150.17
2018-10-03T03:09:02.927Z,99148.33
2018-10-03T03:11:31.696Z,99152.02
2018-10-03T03:14:00.459Z,99158.58
2018-10-03T03:16:29.163Z,99164.45
2018-10-03T03:18:57.936Z,99158.23
2018-10-03T03:21:26.648Z,99163.06
2018-10-03T03:23:55.365Z,99171.52
2018-10-03T03:26:24.149Z,99175.20
2018-10-03T03:28:52.943Z,99178.74
2018-10-03T03:31:21.713Z,99171.17
2018-10-03T03:33:50.534Z,99176.91
2018-10-03T03:36:19.285Z,99186.31
2018-10-03T03:38:48.014Z,99187.66
2018-10-03T03:41:16.845Z,99189.31
2018-10-03T03:43:45.586Z,99193.03
2018-10-03T03:46:14.301Z,99203.60
2018-10-03T03:48:43.064Z,99206.29
2018-10-03T03:51:11.785Z,99216.20
2018-10-03T03:53:40.496Z,99219.38
2018-10-03T03:56:09.214Z,99220.23
2018-10-03T03:58:37.996Z,99228.30
2018-10-03T04:01:06.743Z,99235.86
2018-10-03T04:03:35.506Z,99234.02
2018-10-03T04:06:04.358Z,99239.40
2018-10-03T04:08:33.142Z,99243.08
2018-10-03T04:11:01.891Z,99243.58
2018-10-03T04:13:30.631Z,99247.61
2018-10-03T04:16:00.244Z,99257.02
2018-10-03T04:18:29.078Z,99257.55
2018-10-03T04:20:57.817Z,99259.39
2018-10-03T04:23:26.705Z,99267.45
2018-10-03T04:25:55.566Z,99270.64
2018-10-03T04:28:24.324Z,99267.11
2018-10-03T04:30:53.089Z,99282.73
2018-10-03T04:33:21.892Z,99277.36
2018-10-03T04:35:50.637Z,99288.97
2018-10-03T04:38:19.494Z,99287.27
2018-10-03T04:40:48.280Z,99281.05
2018-10-03T04:43:17.048Z,99292.15
2018-10-03T04:45:45.743Z,99296.36
2018-10-03T04:48:14.542Z,99302.55
2018-10-03T04:50:43.311Z,99312.98
2018-10-03T04:53:12.084Z,99312.98
2018-10-03T04:55:40.830Z,99325.41
2018-10-03T04:58:09.564Z,99337.50
2018-10-03T05:00:39.297Z,99334.50
2018-10-03T05:03:08.076Z,99341.53
2018-10-03T05:05:36.862Z,99346.09
2018-10-03T05:08:05.612Z,99357.16
2018-10-03T05:10:34.339Z,99361.70
2018-10-03T05:13:03.204Z,99359.36
2018-10-03T05:15:32.040Z,99373.47
2018-10-03T05:18:00.884Z,99388.61
2018-10-03T05:20:30.449Z,99401.02
2018-10-03T05:22:59.203Z,99390.80
2018-10-03T05:25:27.946Z,99396.00
2018-10-03T05:27:56.780Z,99405.41
2018-10-03T05:30:25.527Z,99409.27
2018-10-03T05:32:54.425Z,99414.14
2018-10-03T05:35:23.179Z,99416.34
2018-10-03T05:37:52.448Z,99415.48
2018-10-03T05:40:21.288Z,99422.21
2018-10-03T05:42:50.076Z,99433.32
2018-10-03T05:45:19.064Z,99435.52
2018-10-03T05:47:47.972Z,99446.27
2018-10-03T05:50:16.780Z,99448.42
2018-10-03T05:52:45.557Z,99459.18
2018-10-03T05:55:14.342Z,99469.80
2018-10-03T05:57:43.133Z,99464.91
2018-10-03T06:00:11.977Z,99471.14
2018-10-03T06:02:40.779Z,99479.70
2018-10-03T06:05:09.651Z,99481.89
2018-10-03T06:07:38.434Z,99488.12
2018-10-03T06:10:07.320Z,99501.03
2018-10-03T06:12:36.196Z,99506.94
2018-10-03T06:15:05.766Z,99510.98
2018-10-03T06:17:34.601Z,99522.55
2018-10-03T06:20:03.703Z,99524.74
2018-10-03T06:22:32.449Z,99532.31
2018-10-03T06:25:01.254Z,99541.23
2018-10-03T06:27:30.005Z,99546.61
2018-10-03T06:29:58.851Z,99544.06
2018-10-03T06:32:27.709Z,99559.70
2018-10-03T06:34:56.523Z,99565.43
2018-10-03T06:37:25.242Z,99568.61
2018-10-03T06:39:54.059Z,99575.83
2018-10-03T06:42:22.869Z,99586.09
2018-10-03T06:44:51.653Z,99582.91
2018-10-03T06:47:20.514Z,99589.14
2018-10-03T06:49:49.297Z,99589.14
2018-10-03T06:52:18.064Z,99596.19
2018-10-03T06:54:46.851Z,99600.39
2018-10-03T06:57:15.590Z,99603.57
2018-10-03T06:59:44.328Z,99604.92
2018-10-03T07:02:13.063Z,99608.10
2018-10-03T07:04:41.831Z,99612.13
2018-10-03T07:07:10.607Z,99618.86
2018-10-03T07:09:39.341Z,99627.42
2018-10-03T07:12:08.119Z,99631.31
2018-10-03T07:14:37.064Z,99636.83
2018-10-03T07:17:05.835Z,99639.02
2018-10-03T07:19:34.584Z,99644.41
2018-10-03T07:22:03.438Z,99640.38
2018-10-03T07:24:32.201Z,99649.46
2018-10-03T07:27:00.961Z,99653.49
2018-10-03T07:29:29.707Z,99665.06
2018-10-03T07:31:58.482Z,99670.97
2018-10-03T07:34:27.198Z,99674.16
2018-10-03T07:36:55.953Z,99677.70
2018-10-03T07:39:24.739Z,99688.09
2018-10-03T07:41:53.597Z,99692.98
2018-10-03T07:44:22.352Z,99701.90
2018-10-03T07:46:51.219Z,99696.52
2018-10-03T07:49:20.006Z,99701.05
2018-10-03T07:51:48.783Z,99707.77
2018-10-03T07:54:17.585Z,99717.50
2018-10-03T07:56:46.390Z,99726.10
2018-10-03T07:59:15.149Z,99740.36
2018-10-03T08:01:43.991Z,99737.35
2018-10-03T08:04:12.823Z,99738.20
2018-10-03T08:06:41.796Z,99759.19
2018-10-03T08:09:11.359Z,99770.11
2018-10-03T08:11:40.410Z,99780.87
2018-10-03T08:14:09.245Z,99788.77
2018-10-03T08:16:38.173Z,99799.20
2018-10-03T08:19:06.964Z,99800.55
2018-10-03T08:21:35.725Z,99803.56
2018-10-03T08:24:04.540Z,99820.72
2018-10-03T08:26:33.297Z,99814.31
2018-10-03T08:29:02.078Z,99812.16
2018-10-03T08:31:30.875Z,99823.59
2018-10-03T08:33:59.662Z,99821.39
2018-10-03T08:36:28.401Z,99824.45
2018-10-03T08:38:57.203Z,99827.63
2018-10-03T08:41:26.019Z,99843.27
2018-10-03T08:43:54.789Z,99841.76
2018-10-03T08:46:23.574Z,99845.79
2018-10-03T08:48:52.390Z,99857.41
2018-10-03T08:51:21.174Z,99858.74
2018-10-03T08:53:49.945Z,99866.31
2018-10-03T08:56:18.822Z,99867.99
2018-10-03T08:58:47.629Z,99876.06
2018-10-03T09:01:16.483Z,99882.29
2018-10-03T09:03:45.225Z,99889.87
2018-10-03T09:06:13.958Z,99898.79
2018-10-03T09:08:42.785Z,99898.43
2018-10-03T09:11:11.531Z,99901.48
2018-10-03T09:13:40.319Z,99903.67
2018-10-03T09:16:09.128Z,99899.11
2018-10-03T09:18:38.037Z,99914.43
2018-10-03T09:21:07.126Z,99915.25
2018-10-03T09:23:35.875Z,99926.01
2018-10-03T09:26:04.841Z,99926.53
2018-10-03T09:28:33.567Z,99945.00
2018-10-03T09:31:03.045Z,99945.86
2018-10-03T09:33:31.812Z,99948.55
2018-10-03T09:36:00.564Z,99957.47
2018-10-03T09:38:29.410Z,99965.86
2018-10-03T09:40:59.077Z,99960.64
2018-10-03T09:43:27.857Z,99970.91
2018-10-03T09:45:56.631Z,99960.09
2018-10-03T09:48:25.380Z,99970.91
2018-10-03T09:50:54.176Z,99973.60
2018-10-03T09:53:22.943Z,99976.30
2018-10-03T09:55:51.733Z,99981.67
2018-10-03T09:58:20.507Z,99984.86
2018-10-03T10:00:54.583Z,99991.08
2018-10-03T10:03:23.425Z,100003.19
2018-10-03T10:05:52.215Z,100012.08
2018-10-03T10:08:21.025Z,100012.24
2018-10-03T10:10:49.773Z,100023.36
2018-10-03T10:13:18.639Z,100033.27
2018-10-03T10:15:47.440Z,100040.84
2018-10-03T10:18:16.249Z,100046.23
2018-10-03T10:20:45.035Z,100045.38
2018-10-03T10:23:13.811Z,100045.70
2018-10-03T10:25:42.594Z,100051.08
2018-10-03T10:28:11.511Z,100057.80
2018-10-03T10:30:40.456Z,100052.95
2018-10-03T10:33:09.310Z,100052.42
2018-10-03T10:35:38.032Z,100059.67
2018-10-03T10:38:07.032Z,100066.23
2018-10-03T10:40:35.961Z,100073.94
2018-10-03T10:43:04.867Z,100075.65
2018-10-03T10:45:33.659Z,100078.83
2018-10-03T10:48:02.697Z,100085.23
2018-10-03T10:50:31.472Z,100089.27
2018-10-03T10:53:00.196Z,100090.08
2018-10-03T10:55:29.015Z,100090.94
2018-10-03T10:57:58.247Z,100097.66
2018-10-03T11:00:28.110Z,100102.06
2018-10-03T11:02:57.094Z,100106.22
2018-10-03T11:05:25.942Z,100106.22
2018-10-03T11:07:54.706Z,100111.11
2018-10-03T11:10:23.562Z,100109.77
2018-10-03T11:12:52.304Z,100118.69
2018-10-03T11:15:21.214Z,100136.53
2018-10-03T11:17:49.956Z,100134.33
2018-10-03T11:20:18.678Z,100135.68
2018-10-03T11:22:47.435Z,100138.37
2018-10-03T11:25:16.245Z,100140.90
2018-10-03T11:27:45.217Z,100156.55
2018-10-03T11:30:13.959Z,100160.22
2018-10-03T11:32:42.688Z,100169.14
2018-10-03T11:35:11.563Z,100170.98
2018-10-03T11:37:40.512Z,100176.36
2018-10-03T11:40:09.504Z,100176.36
2018-10-03T11:42:38.337Z,100184.43
2018-10-03T11:45:07.128Z,100187.48
2018-10-03T11:47:35.933Z,100193.36
2018-10-03T11:50:05.062Z,100189.31
2018-10-03T11:52:33.801Z,100202.77
2018-10-03T11:55:02.597Z,100206.67
2018-10-03T11:57:31.394Z,100214.75
2018-10-03T12:00:00.213Z,100230.36
2018-10-03T12:02:29.213Z,100227.67
2018-10-03T12:04:57.989Z,100219.60
2018-10-03T12:07:27.760Z,100237.61
2018-10-03T12:09:56.598Z,100227.83
2018-10-03T12:12:25.415Z,100227.83
2018-10-03T12:14:54.222Z,100234.92
2018-10-03T12:17:22.969Z,100218.91
2018-10-03T12:19:51.786Z,100222.45
2018-10-03T12:22:20.496Z,100224.28
2018-10-03T12:24:49.387Z,100239.45
2018-10-03T12:27:18.106Z,100249.72
2018-10-03T12:29:46.902Z,100244.46
2018-10-03T12:32:16.082Z,100248.01
2018-10-03T12:34:44.934Z,100251.67
2018-10-03T12:37:14.690Z,100257.91
2018-10-03T12:39:43.422Z,100251.67
2018-10-03T12:42:12.366Z,100259.75
2018-10-03T12:44:41.167Z,100262.96
2018-10-03T12:47:09.906Z,100261.61
2018-10-03T12:49:38.753Z,100258.41
2018-10-03T12:52:08.186Z,100262.44
2018-10-03T12:54:36.946Z,100270.17
2018-10-03T12:57:05.677Z,100274.55
2018-10-03T12:59:34.501Z,100280.94
2018-10-03T13:02:03.286Z,100282.28
2018-10-03T13:04:32.173Z,100280.94
2018-10-03T13:07:00.887Z,100286.65
2018-10-03T13:09:29.750Z,100297.93
2018-10-03T13:11:58.551Z,100305.14
2018-10-03T13:14:27.320Z,100306.49
2018-10-03T13:16:56.139Z,100312.85
2018-10-03T13:19:24.936Z,100312.36
2018-10-03T13:21:53.732Z,100309.30
2018-10-03T13:24:22.527Z,100308.97
2018-10-03T13:26:51.276Z,100320.59
2018-10-03T13:29:20.047Z,100321.94
2018-10-03T13:31:48.855Z,100324.63
2018-10-03T13:34:17.617Z,100325.11
2018-10-03T13:36:46.365Z,100329.64
2018-10-03T13:39:15.173Z,100334.53
2018-10-03T13:41:44.052Z,100337.70
2018-10-03T13:44:12.812Z,100336.36
2018-10-03T13:46:41.680Z,100343.09
2018-10-03T13:49:10.398Z,100343.94
2018-10-03T13:51:39.174Z,100353.84
2018-10-03T13:54:07.935Z,100351.16
2018-10-03T13:56:36.724Z,100363.26
2018-10-03T13:59:05.892Z,100367.30
2018-10-03T14:01:34.647Z,100360.57
2018-10-03T14:04:03.397Z,100378.05
2018-10-03T14:06:32.298Z,100368.64
2018-10-03T14:09:01.169Z,100374.52
2018-10-03T14:11:30.037Z,100376.71
2018-10-03T14:13:58.838Z,100382.95
2018-10-03T14:16:27.682Z,100389.30
2018-10-03T14:18:56.464Z,100392.00
2018-10-03T14:21:25.285Z,100392.00
2018-10-03T14:23:54.123Z,100392.00
2018-10-03T14:26:22.950Z,100393.34
2018-10-03T14:28:51.733Z,100407.28
2018-10-03T14:31:20.525Z,100409.97
2018-10-03T14:33:49.340Z,100401.89
2018-10-03T14:36:18.165Z,100409.48
2018-10-03T14:38:47.071Z,100417.92
2018-10-03T14:41:15.877Z,100425.12
2018-10-03T14:43:44.667Z,100417.55
2018-10-03T14:46:13.583Z,100420.23
2018-10-03T14:48:42.588Z,100414.52
2018-10-03T14:51:12.060Z,100424.77
2018-10-03T14:53:40.882Z,100431.48
2018-10-03T14:56:14.779Z,100433.47
2018-10-03T14:58:44.765Z,100435.31
2018-10-03T15:01:14.243Z,100433.96
2018-10-03T15:03:45.722Z,100442.55
2018-10-03T15:06:14.677Z,100447.94
2018-10-03T15:08:44.070Z,100447.08
2018-10-03T15:11:14.760Z,100446.22
2018-10-03T15:13:45.951Z,100455.15
2018-10-03T15:16:16.034Z,100456.98
2018-10-03T15:18:45.696Z,100457.47
2018-10-03T15:21:16.676Z,100467.37
2018-10-03T15:23:46.628Z,100475.81
2018-10-03T15:26:18.279Z,100483.88
2018-10-03T15:28:47.353Z,100479.48
2018-10-03T15:31:17.716Z,100488.03
2018-10-03T15:33:47.268Z,100487.70
2018-10-03T15:36:18.263Z,100485.50
2018-10-03T15:38:48.377Z,100497.97
2018-10-03T15:41:18.837Z,100497.59
2018-10-03T15:43:48.098Z,100499.80
2018-10-03T15:46:17.461Z,100502.98
2018-10-03T15:48:46.635Z,100505.30
2018-10-03T15:51:16.092Z,100509.86
2018-10-03T15:53:45.400Z,100512.02
2018-10-03T15:56:14.865Z,100515.23
2018-10-03T15:58:45.250Z,100519.39
2018-10-03T16:03:53.184Z,100531.00
2018-10-03T16:06:23.879Z,100533.69
2018-10-03T16:08:54.045Z,100540.05
2018-10-03T16:11:23.557Z,100552.15
2018-10-03T16:13:52.984Z,100549.98
2018-10-03T16:16:22.376Z,100553.16
2018-10-03T16:18:53.074Z,100554.02
2018-10-03T16:21:22.876Z,100554.98
2018-10-03T16:23:56.229Z,100556.70
2018-10-03T16:26:26.655Z,100563.06
2018-10-03T16:28:56.621Z,100563.06
2018-10-03T16:31:25.853Z,100569.78
2018-10-03T16:33:58.390Z,100575.53
2018-10-03T16:36:29.050Z,100581.39
2018-10-03T16:38:59.327Z,100584.95
2018-10-03T16:41:29.297Z,100588.98
2018-10-03T16:43:59.229Z,100586.78
2018-10-03T16:46:28.040Z,100588.98
2018-10-03T16:48:57.040Z,100593.50
2018-10-03T16:51:26.019Z,100593.50
2018-10-03T16:53:54.818Z,100594.36
2018-10-03T16:56:23.621Z,100592.16
2018-10-03T16:58:52.503Z,100597.53
2018-10-03T17:01:21.325Z,100600.71
2018-10-03T17:03:50.193Z,100596.68
2018-10-03T17:06:19.033Z,100603.77
2018-10-03T17:08:47.877Z,100604.59
2018-10-03T17:11:16.842Z,100603.63
2018-10-03T17:13:56.825Z,100604.11
2018-10-03T17:16:25.858Z,100609.86
2018-10-03T17:18:54.747Z,100611.32
2018-10-03T17:21:23.702Z,100616.58
2018-10-03T17:23:52.576Z,100617.56
2018-10-03T17:26:21.492Z,100620.25
2018-10-03T17:28:50.369Z,100624.77
2018-10-03T17:31:19.269Z,100622.08
2018-10-03T17:33:48.363Z,100619.91
2018-10-03T17:36:18.119Z,100633.36
2018-10-03T17:38:47.001Z,100632.50
2018-10-03T17:41:15.832Z,100626.27
2018-10-03T17:43:45.396Z,100612.30
2018-10-03T17:46:14.264Z,100633.84
2018-10-03T17:48:44.324Z,100638.36
2018-10-03T17:51:13.207Z,100639.34
2018-10-03T17:53:42.028Z,100642.89
2018-10-03T17:56:11.023Z,100649.61
2018-10-03T17:58:39.955Z,100651.81
2018-10-03T18:01:09.064Z,100648.75
2018-10-03T18:03:38.058Z,100651.81
2018-10-03T18:06:06.957Z,100656.34
2018-10-03T18:08:36.048Z,100655.48
2018-10-03T18:11:04.998Z,100653.64
2018-10-03T18:13:33.946Z,100662.20
2018-10-03T18:16:03.204Z,100656.82
2018-10-03T18:18:32.053Z,100656.48
2018-10-03T18:21:00.949Z,100662.20
2018-10-03T18:23:29.834Z,100672.13
2018-10-03T18:25:58.684Z,100672.13
2018-10-03T18:28:27.514Z,100677.63
2018-10-03T18:30:56.312Z,100680.69
2018-10-03T18:33:26.622Z,100684.35
2018-10-03T18:35:56.690Z,100678.11
2018-10-03T18:38:25.614Z,100672.39
2018-10-03T18:40:54.701Z,100677.77
2018-10-03T18:43:23.512Z,100680.47
2018-10-03T18:45:52.419Z,100686.33
2018-10-03T18:48:21.431Z,100695.25
2018-10-03T18:50:50.462Z,100691.70
2018-10-03T18:53:19.317Z,100686.33
2018-10-03T18:55:48.301Z,100692.56
2018-10-03T18:58:17.431Z,100691.22
2018-10-03T19:00:46.436Z,100696.60
2018-10-03T19:03:15.432Z,100695.74
2018-10-03T19:05:44.463Z,100693.91
2018-10-03T19:08:13.401Z,100697.45
2018-10-03T19:10:42.429Z,100700.15
2018-10-03T19:13:11.516Z,100700.63
2018-10-03T19:15:40.606Z,100699.29
2018-10-03T19:18:09.598Z,100701.49
2018-10-03T19:20:38.723Z,100705.53
2018-10-03T19:23:07.705Z,100701.98
2018-10-03T19:25:36.842Z,100701.49
2018-10-03T19:28:05.834Z,100701.98
2018-10-03T19:30:34.658Z,100709.56
2018-10-03T19:33:04.630Z,100706.88
2018-10-03T19:35:34.136Z,100710.39
2018-10-03T19:38:04.003Z,100711.39
2018-10-03T19:40:32.902Z,100715.28
2018-10-03T19:43:01.755Z,100714.80
2018-10-03T19:45:30.919Z,100714.80
2018-10-03T19:47:59.840Z,100722.38
2018-10-03T19:50:28.876Z,100724.20
2018-10-03T19:52:57.724Z,100723.01
2018-10-03T19:55:26.630Z,100723.84
2018-10-03T19:57:56.199Z,100724.36
2018-10-03T20:00:25.120Z,100726.52
2018-10-03T20:02:54.087Z,100732.76
2018-10-03T20:05:23.147Z,100729.36
2018-10-03T20:07:52.155Z,100730.22
2018-10-03T20:10:21.247Z,100727.16
2018-10-03T20:12:50.133Z,100728.39
2018-10-03T20:15:19.059Z,100729.36
2018-10-03T20:17:47.965Z,100733.39
2018-10-03T20:20:16.887Z,100742.80
2018-10-03T20:22:46.033Z,100740.12
2018-10-03T20:25:15.773Z,100744.16
2018-10-03T20:27:44.605Z,100748.56
2018-10-03T20:30:13.522Z,100745.50
2018-10-03T20:32:42.468Z,100750.88
2018-10-03T20:35:11.372Z,100778.25
2018-10-03T20:37:40.179Z,100764.81
2018-10-03T20:40:10.254Z,100764.47
2018-10-03T20:42:39.174Z,100773.02
2018-10-03T20:45:08.800Z,100771.67
2018-10-03T20:47:37.647Z,100772.02
2018-10-03T20:50:06.727Z,100775.08
2018-10-03T20:52:35.615Z,100776.42
2018-10-03T20:55:04.537Z,100773.11
2018-10-03T20:57:33.399Z,100774.45
2018-10-03T21:00:02.598Z,100774.19
2018-10-03T21:02:31.647Z,100775.05
2018-10-03T21:05:00.426Z,100779.80
2018-10-03T21:07:29.279Z,100769.91
2018-10-03T21:09:58.049Z,100777.34
2018-10-03T21:12:27.233Z,100778.91
2018-10-03T21:14:56.380Z,100782.83
2018-10-03T21:17:25.634Z,100772.91
2018-10-03T21:19:55.597Z,100780.38
2018-10-03T21:22:24.360Z,100780.71
2018-10-03T21:24:53.466Z,100781.42
2018-10-03T21:27:22.480Z,100788.90
2018-10-03T21:29:51.494Z,100797.31
2018-10-03T21:32:20.506Z,100795.48
2018-10-03T21:34:49.719Z,100795.70
2018-10-03T21:37:18.808Z,100790.17
2018-10-03T21:39:47.604Z,100795.93
2018-10-03T21:42:16.761Z,100798.84
2018-10-03T21:44:45.842Z,100802.40
2018-10-03T21:47:45.539Z,100799.70
2018-10-03T21:50:14.362Z,100804.60
2018-10-03T21:52:43.283Z,100808.48
2018-10-03T21:55:12.262Z,100809.35
2018-10-03T21:57:41.068Z,100811.55
2018-10-03T22:00:10.409Z,100812.05
2018-10-03T22:02:40.674Z,100807.86
2018-10-03T22:05:10.444Z,100820.34
2018-10-03T22:07:40.051Z,100818.62
2018-10-03T22:10:09.337Z,100808.48
2018-10-03T22:12:38.333Z,100815.59
2018-10-03T22:15:08.228Z,100811.55
2018-10-03T22:17:40.638Z,100831.25
2018-10-03T22:20:10.236Z,100847.89
2018-10-03T22:22:40.148Z,100846.54
2018-10-03T22:25:09.313Z,100848.00
2018-10-03T22:27:38.521Z,100851.20
2018-10-03T22:30:09.662Z,100862.45
2018-10-03T22:32:38.885Z,100872.73
2018-10-03T22:35:09.540Z,100873.70
2018-10-03T22:37:38.878Z,100871.50
2018-10-03T22:40:07.972Z,100870.16
2018-10-03T22:42:37.859Z,100869.81
2018-10-03T22:45:07.250Z,100865.26
2018-10-03T22:47:36.541Z,100876.02
2018-10-03T22:50:06.696Z,100876.66
2018-10-03T22:52:35.866Z,100882.52
2018-10-03T22:55:05.213Z,100885.70
2018-10-03T22:57:34.044Z,100886.21
2018-10-03T23:00:02.966Z,100892.42
2018-10-03T23:02:32.135Z,100888.05
2018-10-03T23:05:01.053Z,100887.67
2018-10-03T23:07:30.928Z,100893.91
2018-10-03T23:09:59.964Z,100899.44
2018-10-03T23:12:29.082Z,100903.09
2018-10-03T23:14:58.474Z,100910.80
2018-10-03T23:17:28.210Z,100908.63
2018-10-03T23:19:57.002Z,100917.17
2018-10-03T23:22:26.177Z,100921.32
2018-10-03T23:24:57.668Z,100918.15
2018-10-03T23:27:26.696Z,100919.64
2018-10-03T23:29:56.078Z,100917.91
2018-10-03T23:32:25.121Z,100925.98
2018-10-03T23:34:54.812Z,100929.16
2018-10-03T23:37:24.628Z,100926.13
2018-10-03T23:39:53.646Z,100929.30
2018-10-03T23:42:22.638Z,100929.79
2018-10-03T23:44:51.721Z,100938.34
2018-10-03T23:47:21.458Z,100935.66
2018-10-03T23:49:50.811Z,100944.23
2018-10-03T23:53:49.212Z,100944.23
2018-10-03T23:56:18.056Z,100950.84
2018-10-03T23:58:46.987Z,100959.88
